Time,TemperatureF,DewpointF,PressureIn,WindDirection,WindDirectionDegrees,WindSpeedMPH,WindSpeedGustMPH,Humidity,HourlyPrecipIn,Conditions,Clouds,dailyrainin,SoftwareType,DateUTC
2013-01-16 00:08:00,15.8,1.7,30.82,North,359,0.0,0.0,53,0.00,,,0.00,Wunderground v.1.15,2013-01-16 07:08:00,
2013-01-16 00:18:00,15.7,2.0,30.82,North,359,0.0,0.0,54,0.00,,,0.00,Wunderground v.1.15,2013-01-16 07:18:00,
2013-01-16 00:28:00,15.3,2.0,30.82,North,358,0.0,0.0,55,0.00,,,0.00,Wunderground v.1.15,2013-01-16 07:28:00,
2013-01-16 00:33:00,14.8,1.9,30.82,North,359,0.0,0.0,56,0.00,,,0.00,Wunderground v.1.15,2013-01-16 07:33:00,
2013-01-16 00:43:00,13.9,1.5,30.81,North,359,0.0,0.0,57,0.00,,,0.00,Wunderground v.1.15,2013-01-16 07:43:00,
2013-01-16 00:53:00,13.2,1.9,30.81,North,360,0.0,0.0,60,0.00,,,0.00,Wunderground v.1.15,2013-01-16 07:53:00,
2013-01-16 00:58:00,13.5,2.2,30.81,North,360,0.0,0.0,60,0.00,,,0.00,Wunderground v.1.15,2013-01-16 07:58:00,
2013-01-16 01:08:00,12.9,1.2,30.81,North,359,0.0,0.0,59,0.00,,,0.00,Wunderground v.1.15,2013-01-16 08:08:00,
2013-01-16 01:13:00,12.7,1.8,30.81,North,360,0.0,0.0,61,0.00,,,0.00,Wunderground v.1.15,2013-01-16 08:13:00,
2013-01-16 01:18:00,12.8,1.9,30.82,North,360,0.0,0.0,61,0.00,,,0.00,Wunderground v.1.15,2013-01-16 08:18:00,
2013-01-16 01:28:00,13.2,2.3,30.82,North,356,0.0,0.0,61,0.00,,,0.00,Wunderground v.1.15,2013-01-16 08:28:00,
2013-01-16 01:38:00,13.8,3.2,30.82,NNW,340,0.0,1.0,62,0.00,,,0.00,Wunderground v.1.15,2013-01-16 08:38:00,
2013-01-16 01:43:00,14.0,2.7,30.83,NNW,346,0.0,1.0,60,0.00,,,0.00,Wunderground v.1.15,2013-01-16 08:43:00,
2013-01-16 01:53:00,14.2,2.8,30.82,NNW,342,1.0,1.0,60,0.00,,,0.00,Wunderground v.1.15,2013-01-16 08:53:00,
2013-01-16 01:58:00,14.3,2.6,30.82,NNW,342,0.0,0.0,59,0.00,,,0.00,Wunderground v.1.15,2013-01-16 08:58:00,
2013-01-16 02:08:00,14.2,2.1,30.83,NNW,340,0.0,0.0,58,0.00,,,0.00,Wunderground v.1.15,2013-01-16 09:08:00,
2013-01-16 02:13:00,14.2,1.7,30.82,NNW,340,0.0,0.0,57,0.00,,,0.00,Wunderground v.1.15,2013-01-16 09:13:00,
2013-01-16 02:23:00,14.5,2.0,30.83,NNW,345,0.0,0.0,57,0.00,,,0.00,Wunderground v.1.15,2013-01-16 09:23:00,
2013-01-16 02:28:00,14.4,1.9,30.83,NNW,346,0.0,0.0,57,0.00,,,0.00,Wunderground v.1.15,2013-01-16 09:28:00,
2013-01-16 02:38:00,13.8,1.7,30.83,NNW,345,0.0,0.0,58,0.00,,,0.00,Wunderground v.1.15,2013-01-16 09:38:00,
2013-01-16 02:48:00,13.2,1.9,30.83,NNW,345,0.0,0.0,60,0.00,,,0.00,Wunderground v.1.15,2013-01-16 09:48:00,
2013-01-16 02:53:00,13.4,2.1,30.83,NNW,342,0.0,0.0,60,0.00,,,0.00,Wunderground v.1.15,2013-01-16 09:53:00,
2013-01-16 02:58:00,13.7,2.4,30.83,NNW,343,0.0,0.0,60,0.00,,,0.00,Wunderground v.1.15,2013-01-16 09:58:00,
2013-01-16 03:08:00,13.1,2.5,30.83,West,260,0.0,0.0,62,0.00,,,0.00,Wunderground v.1.15,2013-01-16 10:08:00,
2013-01-16 03:13:00,12.8,2.2,30.83,ESE,120,0.0,2.0,62,0.00,,,0.00,Wunderground v.1.15,2013-01-16 10:13:00,
2013-01-16 03:18:00,13.0,2.4,30.84,SSE,148,1.0,1.0,62,0.00,,,0.00,Wunderground v.1.15,2013-01-16 10:18:00,
2013-01-16 03:23:00,13.3,2.3,30.83,SE,129,1.0,1.0,61,0.00,,,0.00,Wunderground v.1.15,2013-01-16 10:23:00,
2013-01-16 03:33:00,13.7,2.7,30.83,ESE,120,0.0,0.0,61,0.00,,,0.00,Wunderground v.1.15,2013-01-16 10:33:00,
2013-01-16 03:38:00,13.4,2.4,30.83,ESE,120,0.0,0.0,61,0.00,,,0.00,Wunderground v.1.15,2013-01-16 10:38:00,
2013-01-16 03:43:00,13.0,2.4,30.83,ESE,120,0.0,0.0,62,0.00,,,0.00,Wunderground v.1.15,2013-01-16 10:43:00,
2013-01-16 03:48:00,12.8,2.6,30.83,ESE,120,0.0,0.0,63,0.00,,,0.00,Wunderground v.1.15,2013-01-16 10:48:00,
2013-01-16 03:58:00,12.2,2.7,30.83,ESE,120,0.0,0.0,65,0.00,,,0.00,Wunderground v.1.15,2013-01-16 10:58:00,
2013-01-16 04:08:00,12.4,2.9,30.82,ESE,117,0.0,0.0,65,0.00,,,0.00,Wunderground v.1.15,2013-01-16 11:08:00,
2013-01-16 04:18:00,12.7,3.5,30.82,ESE,117,0.0,0.0,66,0.00,,,0.00,Wunderground v.1.15,2013-01-16 11:18:00,
2013-01-16 04:28:00,14.0,2.7,30.82,NNE,21,1.0,2.0,60,0.00,,,0.00,Wunderground v.1.15,2013-01-16 11:28:00,
2013-01-16 04:38:00,14.8,3.0,30.82,WSW,257,1.0,1.0,59,0.00,,,0.00,Wunderground v.1.15,2013-01-16 11:38:00,
2013-01-16 04:43:00,14.6,2.9,30.82,WSW,253,0.0,1.0,59,0.00,,,0.00,Wunderground v.1.15,2013-01-16 11:43:00,
2013-01-16 04:53:00,14.3,2.9,30.82,NW,316,0.0,0.0,60,0.00,,,0.00,Wunderground v.1.15,2013-01-16 11:53:00,
2013-01-16 04:58:00,14.4,3.0,30.82,NW,318,0.0,0.0,60,0.00,,,0.00,Wunderground v.1.15,2013-01-16 11:58:00,
2013-01-16 05:08:00,13.9,4.3,30.82,NW,318,0.0,0.0,65,0.00,,,0.00,Wunderground v.1.15,2013-01-16 12:08:00,
2013-01-16 05:18:00,13.7,3.1,30.82,NW,318,0.0,0.0,62,0.00,,,0.00,Wunderground v.1.15,2013-01-16 12:18:00,
2013-01-16 05:28:00,12.9,3.0,30.82,NW,318,0.0,0.0,64,0.00,,,0.00,Wunderground v.1.15,2013-01-16 12:28:00,
2013-01-16 05:38:00,12.1,2.6,30.82,NW,318,0.0,0.0,65,0.00,,,0.00,Wunderground v.1.15,2013-01-16 12:38:00,
2013-01-16 05:43:00,11.8,2.9,30.82,WNW,289,0.0,0.0,67,0.00,,,0.00,Wunderground v.1.15,2013-01-16 12:43:00,
2013-01-16 05:48:00,11.8,3.3,30.82,WSW,240,0.0,0.0,68,0.00,,,0.00,Wunderground v.1.15,2013-01-16 12:48:00,
2013-01-16 05:58:00,11.5,3.3,30.82,WSW,240,0.0,0.0,69,0.00,,,0.00,Wunderground v.1.15,2013-01-16 12:58:00,
2013-01-16 06:08:00,11.3,3.1,30.82,WSW,240,0.0,0.0,69,0.00,,,0.00,Wunderground v.1.15,2013-01-16 13:08:00,
2013-01-16 06:13:00,10.9,3.0,30.82,WSW,240,0.0,0.0,70,0.00,,,0.00,Wunderground v.1.15,2013-01-16 13:13:00,
2013-01-16 06:23:00,11.4,3.5,30.82,SE,131,0.0,0.0,70,0.00,,,0.00,Wunderground v.1.15,2013-01-16 13:23:00,
2013-01-16 06:28:00,11.5,3.3,30.82,South,186,0.0,0.0,69,0.00,,,0.00,Wunderground v.1.15,2013-01-16 13:28:00,
2013-01-16 06:38:00,10.8,3.2,30.83,South,186,0.0,0.0,71,0.00,,,0.00,Wunderground v.1.15,2013-01-16 13:38:00,
2013-01-16 06:48:00,10.4,3.2,30.83,South,186,0.0,0.0,72,0.00,,,0.00,Wunderground v.1.15,2013-01-16 13:48:00,
2013-01-16 06:58:00,10.9,3.6,30.83,WSW,242,0.0,0.0,72,0.00,,,0.00,Wunderground v.1.15,2013-01-16 13:58:00,
2013-01-16 07:08:00,11.2,3.6,30.84,WSW,257,0.0,0.0,71,0.00,,,0.00,Wunderground v.1.15,2013-01-16 14:08:00,
2013-01-16 07:13:00,10.8,3.5,30.84,North,349,0.0,0.0,72,0.00,,,0.00,Wunderground v.1.15,2013-01-16 14:13:00,
2013-01-16 07:23:00,10.3,3.4,30.85,NNE,14,0.0,0.0,73,0.00,,,0.00,Wunderground v.1.15,2013-01-16 14:23:00,
2013-01-16 07:28:00,10.1,3.5,30.85,NNE,14,0.0,0.0,74,0.00,,,0.00,Wunderground v.1.15,2013-01-16 14:28:00,
2013-01-16 07:33:00,10.0,3.4,30.85,NNE,15,0.0,0.0,74,0.00,,,0.00,Wunderground v.1.15,2013-01-16 14:33:00,
2013-01-16 07:43:00,10.0,3.7,30.85,SW,227,0.0,0.0,75,0.00,,,0.00,Wunderground v.1.15,2013-01-16 14:43:00,
2013-01-16 07:48:00,10.7,4.3,30.85,SSE,160,0.0,0.0,75,0.00,,,0.00,Wunderground v.1.15,2013-01-16 14:48:00,
2013-01-16 07:58:00,13.3,5.0,30.85,SE,144,0.0,0.0,69,0.00,,,0.00,Wunderground v.1.15,2013-01-16 14:58:00,
2013-01-16 08:08:00,15.7,6.3,30.86,SE,143,0.0,0.0,66,0.00,,,0.00,Wunderground v.1.15,2013-01-16 15:08:00,
2013-01-16 08:18:00,17.9,5.6,30.87,SE,135,0.0,0.0,58,0.00,,,0.00,Wunderground v.1.15,2013-01-16 15:18:00,
2013-01-16 08:23:00,18.5,5.4,30.87,South,183,0.0,0.0,56,0.00,,,0.00,Wunderground v.1.15,2013-01-16 15:23:00,
2013-01-16 08:33:00,19.0,5.1,30.87,SSW,198,1.0,1.0,54,0.00,,,0.00,Wunderground v.1.15,2013-01-16 15:33:00,
2013-01-16 08:38:00,19.0,5.1,30.88,SSW,205,1.0,1.0,54,0.00,,,0.00,Wunderground v.1.15,2013-01-16 15:38:00,
2013-01-16 08:43:00,19.7,5.7,30.88,SSW,195,0.0,1.0,54,0.00,,,0.00,Wunderground v.1.15,2013-01-16 15:43:00,
2013-01-16 08:53:00,20.4,6.0,30.88,SE,130,1.0,2.0,53,0.00,,,0.00,Wunderground v.1.15,2013-01-16 15:53:00,
2013-01-16 08:58:00,20.4,5.1,30.88,SW,214,1.0,2.0,51,0.00,,,0.00,Wunderground v.1.15,2013-01-16 15:58:00,
2013-01-16 09:08:00,20.2,5.4,30.88,SW,229,1.0,1.0,52,0.00,,,0.00,Wunderground v.1.15,2013-01-16 16:08:00,
2013-01-16 09:13:00,20.9,5.6,30.88,WSW,249,1.0,1.0,51,0.00,,,0.00,Wunderground v.1.15,2013-01-16 16:13:00,
2013-01-16 09:18:00,21.7,5.9,30.88,SW,214,0.0,0.0,50,0.00,,,0.00,Wunderground v.1.15,2013-01-16 16:18:00,
2013-01-16 09:28:00,22.1,5.4,30.88,West,266,0.0,0.0,48,0.00,,,0.00,Wunderground v.1.15,2013-01-16 16:28:00,
2013-01-16 09:38:00,22.3,5.6,30.88,WNW,301,1.0,1.0,48,0.00,,,0.00,Wunderground v.1.15,2013-01-16 16:38:00,
2013-01-16 09:48:00,23.1,6.3,30.88,West,266,1.0,1.0,48,0.00,,,0.00,Wunderground v.1.15,2013-01-16 16:48:00,
2013-01-16 09:53:00,23.2,5.9,30.87,NNW,333,1.0,2.0,47,0.00,,,0.00,Wunderground v.1.15,2013-01-16 16:53:00,
2013-01-16 09:58:00,23.7,6.4,30.88,WNW,300,1.0,1.0,47,0.00,,,0.00,Wunderground v.1.15,2013-01-16 16:58:00,
2013-01-16 10:08:00,24.1,6.3,30.87,NNW,333,1.0,3.0,46,0.00,,,0.00,Wunderground v.1.15,2013-01-16 17:08:00,
2013-01-16 10:18:00,24.2,5.9,30.87,WSW,246,2.0,2.0,45,0.00,,,0.00,Wunderground v.1.15,2013-01-16 17:18:00,
2013-01-16 10:23:00,24.6,5.8,30.86,WSW,254,2.0,3.0,44,0.00,,,0.00,Wunderground v.1.15,2013-01-16 17:23:00,
2013-01-16 10:33:00,24.9,6.5,30.86,NNW,336,2.0,2.0,45,0.00,,,0.00,Wunderground v.1.15,2013-01-16 17:33:00,
2013-01-16 10:38:00,25.4,6.5,30.86,North,356,1.0,3.0,44,0.00,,,0.00,Wunderground v.1.15,2013-01-16 17:38:00,
2013-01-16 10:43:00,25.7,6.3,30.85,NNE,21,1.0,3.0,43,0.00,,,0.00,Wunderground v.1.15,2013-01-16 17:43:00,
2013-01-16 10:53:00,26.3,6.8,30.85,NW,308,2.0,2.0,43,0.00,,,0.00,Wunderground v.1.15,2013-01-16 17:53:00,
2013-01-16 10:58:00,26.6,6.6,30.84,NE,36,2.0,2.0,42,0.00,,,0.00,Wunderground v.1.15,2013-01-16 17:58:00,
2013-01-16 11:08:00,27.0,6.4,30.84,North,353,2.0,6.0,41,0.00,,,0.00,Wunderground v.1.15,2013-01-16 18:08:00,
2013-01-16 11:13:00,27.4,6.8,30.84,NNE,22,3.0,6.0,41,0.00,,,0.00,Wunderground v.1.15,2013-01-16 18:13:00,
2013-01-16 11:23:00,27.5,6.8,30.83,NNE,32,4.0,8.0,41,0.00,,,0.00,Wunderground v.1.15,2013-01-16 18:23:00,
2013-01-16 11:28:00,27.9,7.2,30.82,NNW,333,3.0,3.0,41,0.00,,,0.00,Wunderground v.1.15,2013-01-16 18:28:00,
2013-01-16 11:38:00,28.7,7.9,30.81,NW,326,3.0,3.0,41,0.00,,,0.00,Wunderground v.1.15,2013-01-16 18:38:00,
2013-01-16 11:48:00,29.2,7.3,30.81,NNE,13,5.0,6.0,39,0.00,,,0.00,Wunderground v.1.15,2013-01-16 18:48:00,
2013-01-16 11:58:00,29.3,7.9,30.80,North,10,3.0,5.0,40,0.00,,,0.00,Wunderground v.1.15,2013-01-16 18:58:00,
2013-01-16 12:08:00,29.9,8.5,30.80,WNW,300,4.0,4.0,40,0.00,,,0.00,Wunderground v.1.15,2013-01-16 19:08:00,
2013-01-16 12:13:00,30.4,8.9,30.79,West,280,3.0,4.0,40,0.00,,,0.00,Wunderground v.1.15,2013-01-16 19:13:00,
2013-01-16 12:23:00,30.9,8.8,30.78,ENE,68,2.0,3.0,39,0.00,,,0.00,Wunderground v.1.15,2013-01-16 19:23:00,
2013-01-16 12:28:00,31.0,8.9,30.78,NNE,28,2.0,7.0,39,0.00,,,0.00,Wunderground v.1.15,2013-01-16 19:28:00,
2013-01-16 12:33:00,31.3,9.7,30.77,NNE,16,3.0,7.0,40,0.00,,,0.00,Wunderground v.1.15,2013-01-16 19:33:00,
2013-01-16 12:43:00,31.6,9.4,30.77,NW,319,3.0,5.0,39,0.00,,,0.00,Wunderground v.1.15,2013-01-16 19:43:00,
2013-01-16 12:53:00,31.9,9.7,30.76,NNW,346,3.0,5.0,39,0.00,,,0.00,Wunderground v.1.15,2013-01-16 19:53:00,
2013-01-16 12:58:00,31.9,9.7,30.76,NNW,346,3.0,6.0,39,0.00,,,0.00,Wunderground v.1.15,2013-01-16 19:58:00,
2013-01-16 13:08:00,32.2,10.0,30.75,WNW,301,3.0,3.0,39,0.00,,,0.00,Wunderground v.1.15,2013-01-16 20:08:00,
2013-01-16 13:18:00,33.6,10.1,30.75,NNW,335,2.0,6.0,37,0.00,,,0.00,Wunderground v.1.15,2013-01-16 20:18:00,
2013-01-16 13:28:00,33.2,10.9,30.75,NNE,19,4.0,6.0,39,0.00,,,0.00,Wunderground v.1.15,2013-01-16 20:28:00,
2013-01-16 13:38:00,33.5,10.6,30.74,NNE,21,4.0,9.0,38,0.00,,,0.00,Wunderground v.1.15,2013-01-16 20:38:00,
2013-01-16 13:48:00,33.9,10.9,30.74,NW,311,5.0,5.0,38,0.00,,,0.00,Wunderground v.1.15,2013-01-16 20:48:00,
2013-01-16 13:53:00,34.1,11.1,30.73,NW,305,4.0,5.0,38,0.00,,,0.00,Wunderground v.1.15,2013-01-16 20:53:00,
2013-01-16 13:58:00,34.3,10.7,30.73,NNW,347,5.0,5.0,37,0.00,,,0.00,Wunderground v.1.15,2013-01-16 20:58:00,
2013-01-16 14:08:00,34.9,11.2,30.72,NNE,12,4.0,6.0,37,0.00,,,0.00,Wunderground v.1.15,2013-01-16 21:08:00,
2013-01-16 14:13:00,35.0,11.9,30.71,North,4,3.0,6.0,38,0.00,,,0.00,Wunderground v.1.15,2013-01-16 21:13:00,
2013-01-16 14:23:00,35.3,11.6,30.71,North,352,4.0,6.0,37,0.00,,,0.00,Wunderground v.1.15,2013-01-16 21:23:00,
2013-01-16 14:33:00,35.7,11.9,30.71,North,353,4.0,7.0,37,0.00,,,0.00,Wunderground v.1.15,2013-01-16 21:33:00,
2013-01-16 14:38:00,35.6,11.9,30.71,NW,313,6.0,6.0,37,0.00,,,0.00,Wunderground v.1.15,2013-01-16 21:38:00,
2013-01-16 14:48:00,36.3,12.5,30.71,NNE,13,4.0,4.0,37,0.00,,,0.00,Wunderground v.1.15,2013-01-16 21:48:00,
2013-01-16 14:58:00,36.3,12.5,30.71,North,1,4.0,5.0,37,0.00,,,0.00,Wunderground v.1.15,2013-01-16 21:58:00,
2013-01-16 15:08:00,36.5,12.7,30.71,NNW,340,5.0,5.0,37,0.00,,,0.00,Wunderground v.1.15,2013-01-16 22:08:00,
2013-01-16 15:13:00,36.9,13.0,30.70,North,1,5.0,6.0,37,0.00,,,0.00,Wunderground v.1.15,2013-01-16 22:13:00,
2013-01-16 15:23:00,37.1,13.2,30.70,NNW,332,6.0,6.0,37,0.00,,,0.00,Wunderground v.1.15,2013-01-16 22:23:00,
2013-01-16 15:33:00,37.4,14.1,30.70,North,6,6.0,10.0,38,0.00,,,0.00,Wunderground v.1.15,2013-01-16 22:33:00,
2013-01-16 15:38:00,37.6,14.2,30.70,NNW,340,6.0,6.0,38,0.00,,,0.00,Wunderground v.1.15,2013-01-16 22:38:00,
2013-01-16 15:48:00,37.7,13.7,30.70,North,356,6.0,7.0,37,0.00,,,0.00,Wunderground v.1.15,2013-01-16 22:48:00,
2013-01-16 15:58:00,37.7,13.7,30.71,NNE,32,6.0,10.0,37,0.00,,,0.00,Wunderground v.1.15,2013-01-16 22:58:00,
2013-01-16 16:08:00,37.6,13.6,30.70,NE,53,7.0,8.0,37,0.00,,,0.00,Wunderground v.1.15,2013-01-16 23:08:00,
2013-01-16 16:13:00,37.6,13.6,30.70,North,350,5.0,8.0,37,0.00,,,0.00,Wunderground v.1.15,2013-01-16 23:13:00,
2013-01-16 16:23:00,37.5,14.2,30.70,NW,317,5.0,7.0,38,0.00,,,0.00,Wunderground v.1.15,2013-01-16 23:23:00,
2013-01-16 16:33:00,37.5,14.2,30.70,NNE,24,6.0,7.0,38,0.00,,,0.00,Wunderground v.1.15,2013-01-16 23:33:00,
2013-01-16 16:38:00,37.3,14.0,30.71,NNW,337,6.0,6.0,38,0.00,,,0.00,Wunderground v.1.15,2013-01-16 23:38:00,
2013-01-16 16:48:00,36.9,13.6,30.71,NE,39,7.0,7.0,38,0.00,,,0.00,Wunderground v.1.15,2013-01-16 23:48:00,
2013-01-16 16:58:00,36.5,13.9,30.71,NE,39,5.0,6.0,39,0.00,,,0.00,Wunderground v.1.15,2013-01-16 23:58:00,
2013-01-16 17:08:00,36.0,14.0,30.71,NNE,13,4.0,4.0,40,0.00,,,0.00,Wunderground v.1.15,2013-01-17 00:08:00,
2013-01-16 17:18:00,35.6,14.2,30.72,NNW,345,3.0,3.0,41,0.00,,,0.00,Wunderground v.1.15,2013-01-17 00:18:00,
2013-01-16 17:23:00,35.3,13.9,30.72,North,351,3.0,5.0,41,0.00,,,0.00,Wunderground v.1.15,2013-01-17 00:23:00,
2013-01-16 17:28:00,35.0,14.2,30.72,NNE,15,4.0,4.0,42,0.00,,,0.00,Wunderground v.1.15,2013-01-17 00:28:00,
2013-01-16 17:38:00,34.5,14.3,30.73,North,5,3.0,3.0,43,0.00,,,0.00,Wunderground v.1.15,2013-01-17 00:38:00,
2013-01-16 17:48:00,33.9,14.3,30.72,NNE,23,4.0,4.0,44,0.00,,,0.00,Wunderground v.1.15,2013-01-17 00:48:00,
2013-01-16 17:58:00,33.5,13.9,30.72,NNE,16,4.0,4.0,44,0.00,,,0.00,Wunderground v.1.15,2013-01-17 00:58:00,
2013-01-16 18:08:00,33.2,13.6,30.73,North,360,4.0,5.0,44,0.00,,,0.00,Wunderground v.1.15,2013-01-17 01:08:00,
2013-01-16 18:13:00,33.0,13.4,30.73,NNE,21,5.0,6.0,44,0.00,,,0.00,Wunderground v.1.15,2013-01-17 01:13:00,
2013-01-16 18:18:00,32.8,13.2,30.73,NNE,26,4.0,4.0,44,0.00,,,0.00,Wunderground v.1.15,2013-01-17 01:18:00,
2013-01-16 18:28:00,32.6,13.1,30.74,NNW,337,4.0,5.0,44,0.00,,,0.00,Wunderground v.1.15,2013-01-17 01:28:00,
2013-01-16 18:38:00,32.3,12.8,30.74,North,355,6.0,11.0,44,0.00,,,0.00,Wunderground v.1.15,2013-01-17 01:38:00,
2013-01-16 18:43:00,32.2,12.7,30.74,North,7,6.0,11.0,44,0.00,,,0.00,Wunderground v.1.15,2013-01-17 01:43:00,
2013-01-16 18:53:00,31.8,12.3,30.75,NNW,330,7.0,13.0,44,0.00,,,0.00,Wunderground v.1.15,2013-01-17 01:53:00,
2013-01-16 18:58:00,31.6,12.2,30.75,NNE,20,6.0,6.0,44,0.00,,,0.00,Wunderground v.1.15,2013-01-17 01:58:00,
2013-01-16 19:08:00,31.1,12.7,30.74,North,349,3.0,3.0,46,0.00,,,0.00,Wunderground v.1.15,2013-01-17 02:08:00,
2013-01-16 19:13:00,30.7,12.8,30.74,NNE,12,2.0,3.0,47,0.00,,,0.00,Wunderground v.1.15,2013-01-17 02:13:00,
2013-01-16 19:23:00,30.2,12.8,30.75,NNE,28,1.0,2.0,48,0.00,,,0.00,Wunderground v.1.15,2013-01-17 02:23:00,
2013-01-16 19:28:00,30.0,13.1,30.75,North,9,1.0,1.0,49,0.00,,,0.00,Wunderground v.1.15,2013-01-17 02:28:00,
2013-01-16 19:33:00,29.9,13.0,30.75,NW,307,1.0,1.0,49,0.00,,,0.00,Wunderground v.1.15,2013-01-17 02:33:00,
2013-01-16 19:43:00,29.6,12.8,30.75,NNE,18,0.0,2.0,49,0.00,,,0.00,Wunderground v.1.15,2013-01-17 02:43:00,
2013-01-16 19:53:00,29.3,12.9,30.75,North,351,1.0,1.0,50,0.00,,,0.00,Wunderground v.1.15,2013-01-17 02:53:00,
2013-01-16 19:58:00,29.2,12.8,30.75,North,351,0.0,1.0,50,0.00,,,0.00,Wunderground v.1.15,2013-01-17 02:58:00,
2013-01-16 20:08:00,29.0,12.7,30.75,North,359,1.0,1.0,50,0.00,,,0.00,Wunderground v.1.15,2013-01-17 03:08:00,
2013-01-16 20:13:00,29.0,12.7,30.76,NNW,339,1.0,1.0,50,0.00,,,0.00,Wunderground v.1.15,2013-01-17 03:13:00,
2013-01-16 20:23:00,28.7,12.8,30.75,NW,318,1.0,1.0,51,0.00,,,0.00,Wunderground v.1.15,2013-01-17 03:23:00,
2013-01-16 20:28:00,28.6,12.7,30.75,NNW,328,2.0,2.0,51,0.00,,,0.00,Wunderground v.1.15,2013-01-17 03:28:00,
2013-01-16 20:38:00,28.3,12.5,30.76,NW,320,1.0,2.0,51,0.00,,,0.00,Wunderground v.1.15,2013-01-17 03:38:00,
2013-01-16 20:43:00,28.2,12.4,30.76,NNW,336,2.0,2.0,51,0.00,,,0.00,Wunderground v.1.15,2013-01-17 03:43:00,
2013-01-16 20:53:00,28.0,12.2,30.76,North,360,2.0,2.0,51,0.00,,,0.00,Wunderground v.1.15,2013-01-17 03:53:00,
2013-01-16 20:58:00,27.9,12.1,30.76,NW,319,2.0,2.0,51,0.00,,,0.00,Wunderground v.1.15,2013-01-17 03:58:00,
2013-01-16 21:08:00,27.7,11.9,30.76,North,349,2.0,2.0,51,0.00,,,0.00,Wunderground v.1.15,2013-01-17 04:08:00,
2013-01-16 21:18:00,27.4,12.1,30.77,WNW,302,1.0,1.0,52,0.00,,,0.00,Wunderground v.1.15,2013-01-17 04:18:00,
2013-01-16 21:23:00,27.1,11.8,30.77,WNW,302,0.0,1.0,52,0.00,,,0.00,Wunderground v.1.15,2013-01-17 04:23:00,
2013-01-16 21:33:00,26.3,11.9,30.78,WNW,301,0.0,0.0,54,0.00,,,0.00,Wunderground v.1.15,2013-01-17 04:33:00,
2013-01-16 21:43:00,25.7,11.7,30.77,WNW,301,0.0,0.0,55,0.00,,,0.00,Wunderground v.1.15,2013-01-17 04:43:00,
2013-01-16 21:48:00,25.4,11.9,30.77,NNE,25,0.0,1.0,56,0.00,,,0.00,Wunderground v.1.15,2013-01-17 04:48:00,
2013-01-16 21:58:00,25.7,11.7,30.77,NNE,14,0.0,0.0,55,0.00,,,0.00,Wunderground v.1.15,2013-01-17 04:58:00,
2013-01-16 22:03:00,26.0,11.6,30.77,North,349,0.0,2.0,54,0.00,,,0.00,Wunderground v.1.15,2013-01-17 05:03:00,
2013-01-16 22:08:00,26.2,11.4,30.77,NNE,20,2.0,5.0,53,0.00,,,0.00,Wunderground v.1.15,2013-01-17 05:08:00,
2013-01-16 22:18:00,26.7,11.4,30.77,NNW,345,3.0,3.0,52,0.00,,,0.00,Wunderground v.1.15,2013-01-17 05:18:00,
2013-01-16 22:28:00,26.7,11.4,30.78,North,353,1.0,1.0,52,0.00,,,0.00,Wunderground v.1.15,2013-01-17 05:28:00,
2013-01-16 22:33:00,26.5,11.2,30.78,NNE,14,1.0,1.0,52,0.00,,,0.00,Wunderground v.1.15,2013-01-17 05:33:00,
2013-01-16 22:43:00,26.3,11.5,30.78,North,9,1.0,2.0,53,0.00,,,0.00,Wunderground v.1.15,2013-01-17 05:43:00,
2013-01-16 22:53:00,26.0,11.6,30.78,NNW,340,1.0,4.0,54,0.00,,,0.00,Wunderground v.1.15,2013-01-17 05:53:00,
2013-01-16 22:58:00,26.0,11.6,30.78,North,359,1.0,1.0,54,0.00,,,0.00,Wunderground v.1.15,2013-01-17 05:58:00,
2013-01-16 23:08:00,25.7,11.7,30.79,North,351,0.0,0.0,55,0.00,,,0.00,Wunderground v.1.15,2013-01-17 06:08:00,
2013-01-16 23:18:00,25.4,11.9,30.79,North,351,0.0,1.0,56,0.00,,,0.00,Wunderground v.1.15,2013-01-17 06:18:00,
2013-01-16 23:28:00,25.3,11.8,30.79,NNE,32,1.0,2.0,56,0.00,,,0.00,Wunderground v.1.15,2013-01-17 06:28:00,
2013-01-16 23:38:00,25.1,11.6,30.79,North,4,1.0,1.0,56,0.00,,,0.00,Wunderground v.1.15,2013-01-17 06:38:00,
2013-01-16 23:48:00,25.0,11.5,30.79,NNE,14,2.0,2.0,56,0.00,,,0.00,Wunderground v.1.15,2013-01-17 06:48:00,
2013-01-16 23:58:00,24.8,11.7,30.79,North,11,2.0,2.0,57,0.00,,,0.00,Wunderground v.1.15,2013-01-17 06:58:00,